Time;durP1;ratioP1;P1;durP2;ratioP2;P2;SDS_P1;SDS_P2;PMS_P1;PMS_P2;Temp;Humidity;BMP_temperature;BMP_pressure;BME280_temperature;BME280_humidity;BME280_pressure;Samples;Min_cycle;Max_cycle;Signal;HPM_P1;HPM_P2
2021/12/09 00:00:59;;;;;;;11.70;10.27;;;6.60;81.90;6.80;94832.00;;;;5066025;28;20258;-84
2021/12/09 00:03:28;;;;;;;10.60;9.10;;;6.60;82.00;6.80;94837.00;;;;5059174;28;20193;-84
2021/12/09 00:05:56;;;;;;;11.83;9.77;;;6.70;82.40;6.80;94840.00;;;;5058607;28;21111;-86
2021/12/09 00:08:27;;;;;;;13.10;9.70;;;6.70;82.60;6.90;94845.00;;;;5056843;28;20751;-86
2021/12/09 00:10:56;;;;;;;12.97;10.30;;;6.70;82.50;6.90;94847.00;;;;5049568;28;20193;-84
2021/12/09 00:13:25;;;;;;;12.47;10.27;;;6.70;82.40;6.90;94847.00;;;;5058748;28;20299;-84
2021/12/09 00:15:52;;;;;;;13.17;9.50;;;6.70;82.20;6.80;94854.00;;;;5057171;28;20220;-83
2021/12/09 00:18:20;;;;;;;11.30;9.97;;;6.70;82.70;6.90;94855.00;;;;5055546;28;20208;-84
2021/12/09 00:20:48;;;;;;;11.80;9.47;;;6.70;82.00;6.80;94855.00;;;;5058125;28;20227;-84
2021/12/09 00:23:16;;;;;;;11.50;10.17;;;6.70;82.10;6.80;94860.00;;;;5057660;28;20197;-84
2021/12/09 00:25:44;;;;;;;11.43;10.07;;;6.70;82.10;6.80;94875.00;;;;5071606;28;20295;-84
2021/12/09 00:28:12;;;;;;;12.63;9.97;;;6.70;82.20;6.80;94882.00;;;;5062352;28;20209;-84
2021/12/09 00:30:39;;;;;;;12.40;10.00;;;6.70;82.20;6.80;94876.00;;;;5057437;28;20207;-83
2021/12/09 00:33:09;;;;;;;13.17;10.43;;;6.70;82.20;6.80;94865.00;;;;5057170;28;20573;-84
2021/12/09 00:35:44;;;;;;;13.50;10.37;;;6.70;82.30;6.80;94857.00;;;;5056351;28;20631;-84
2021/12/09 00:38:20;;;;;;;11.73;10.13;;;6.60;82.30;6.80;94846.00;;;;5051323;28;20278;-84
2021/12/09 00:40:50;;;;;;;10.77;9.63;;;6.70;82.40;6.80;94851.00;;;;5037300;28;20685;-84
2021/12/09 00:43:20;;;;;;;11.17;9.97;;;6.70;82.30;6.80;94850.00;;;;5049949;28;20192;-84
2021/12/09 00:45:47;;;;;;;13.07;10.07;;;6.70;82.30;6.80;94848.00;;;;5056591;28;20295;-84
2021/12/09 00:48:14;;;;;;;11.00;9.80;;;6.70;82.30;6.90;94856.00;;;;5056967;28;20227;-84
2021/12/09 00:50:42;;;;;;;11.47;9.43;;;6.70;82.50;6.90;94863.00;;;;5056203;28;20725;-84
2021/12/09 00:53:09;;;;;;;12.20;10.03;;;6.70;82.60;6.90;94876.00;;;;5056478;28;20220;-84
2021/12/09 00:55:37;;;;;;;12.13;10.23;;;6.70;82.60;6.90;94872.00;;;;5055309;28;20227;-84
2021/12/09 00:58:06;;;;;;;11.90;10.67;;;6.80;82.60;6.90;94873.00;;;;5056577;28;20224;-83
2021/12/09 01:00:34;;;;;;;10.90;9.53;;;6.80;82.60;7.00;94876.00;;;;5056673;28;20189;-84
2021/12/09 01:03:01;;;;;;;12.40;10.20;;;6.80;82.50;7.00;94871.00;;;;5056351;28;20192;-83
2021/12/09 01:05:29;;;;;;;12.20;10.60;;;6.80;82.30;7.00;94869.00;;;;5055637;28;20203;-84
2021/12/09 01:07:57;;;;;;;11.67;10.00;;;6.90;82.30;7.00;94885.00;;;;5056142;28;20220;-83
2021/12/09 01:10:25;;;;;;;12.57;10.40;;;6.90;82.40;7.00;94876.00;;;;5055587;28;20204;-84
2021/12/09 01:12:53;;;;;;;11.63;9.90;;;6.90;82.40;7.10;94879.00;;;;5056081;28;20197;-83
2021/12/09 01:15:23;;;;;;;12.60;10.37;;;6.90;82.20;7.10;94877.00;;;;5054690;28;20307;-84
2021/12/09 01:17:51;;;;;;;13.77;10.20;;;6.90;82.10;7.10;94883.00;;;;5055111;28;20714;-84
2021/12/09 01:20:24;;;;;;;13.33;10.43;;;6.90;82.80;7.10;94895.00;;;;5055393;28;20207;-84
2021/12/09 01:22:53;;;;;;;12.83;10.37;;;7.00;82.00;7.10;94905.00;;;;5055380;28;20211;-83
2021/12/09 01:25:23;;;;;;;13.30;10.50;;;7.00;82.00;7.10;94906.00;;;;5059866;28;20600;-84
2021/12/09 01:27:55;;;;;;;13.67;10.57;;;6.90;81.90;7.10;94909.00;;;;5055554;28;20215;-84
2021/12/09 01:30:25;;;;;;;13.50;10.70;;;6.90;81.80;7.10;94908.00;;;;5055094;28;20201;-83
2021/12/09 01:32:55;;;;;;;12.27;10.03;;;7.00;82.60;7.10;94905.00;;;;5055265;28;20204;-83
2021/12/09 01:35:27;;;;;;;12.90;10.37;;;7.00;81.90;7.10;94892.00;;;;5053921;28;20254;-84
2021/12/09 01:37:58;;;;;;;14.27;10.40;;;7.00;81.90;7.10;94877.00;;;;5034717;28;20308;-84
2021/12/09 01:40:28;;;;;;;12.23;10.10;;;7.00;82.00;7.10;94873.00;;;;5053296;28;20200;-84
2021/12/09 01:42:57;;;;;;;12.17;9.70;;;7.00;82.00;7.10;94868.00;;;;5039995;28;20192;-84
2021/12/09 01:45:27;;;;;;;13.50;10.37;;;7.00;81.90;7.10;94871.00;;;;5034642;28;20205;-84
2021/12/09 01:47:56;;;;;;;12.33;10.20;;;7.00;81.90;7.10;94862.00;;;;5033025;28;20209;-84
2021/12/09 01:50:25;;;;;;;15.37;10.97;;;7.00;81.80;7.10;94857.00;;;;5055077;28;20220;-84
2021/12/09 01:52:52;;;;;;;14.10;10.83;;;7.00;82.00;7.10;94865.00;;;;5054279;28;20201;-84
2021/12/09 01:55:22;;;;;;;15.77;11.37;;;7.00;82.80;7.10;94874.00;;;;5053490;28;20243;-84
2021/12/09 01:57:52;;;;;;;13.43;10.53;;;7.00;82.00;7.10;94889.00;;;;5053342;28;20220;-84
2021/12/09 02:00:25;;;;;;;14.87;11.80;;;7.00;82.00;7.20;94891.00;;;;5060613;28;20704;-84
2021/12/09 02:02:54;;;;;;;16.27;10.63;;;7.00;82.10;7.10;94895.00;;;;5033573;28;20185;-84
2021/12/09 02:05:23;;;;;;;15.30;10.73;;;7.00;81.90;7.20;94895.00;;;;5033209;28;20213;-83
2021/12/09 02:07:50;;;;;;;16.97;11.73;;;7.10;82.00;7.20;94898.00;;;;5034120;28;20414;-84
2021/12/09 02:10:21;;;;;;;15.17;11.60;;;7.00;82.00;7.20;94895.00;;;;5050524;28;20650;-84
2021/12/09 02:12:50;;;;;;;16.20;11.57;;;7.00;81.90;7.10;94895.00;;;;5054467;28;20192;-83
2021/12/09 02:15:20;;;;;;;16.60;11.50;;;7.00;81.90;7.10;94897.00;;;;5049338;28;20711;-84
2021/12/09 02:17:48;;;;;;;16.20;11.30;;;7.00;81.70;7.10;94896.00;;;;5059037;28;20851;-84
2021/12/09 02:20:18;;;;;;;17.07;11.60;;;7.00;82.50;7.10;94894.00;;;;5058534;28;20258;-82
2021/12/09 02:22:48;;;;;;;16.07;11.33;;;7.00;81.90;7.10;94901.00;;;;5053869;28;20272;-84
2021/12/09 02:25:16;;;;;;;14.90;11.13;;;7.00;82.50;7.20;94900.00;;;;5063729;28;20203;-84
2021/12/09 02:27:44;;;;;;;15.77;11.83;;;7.00;81.70;7.10;94900.00;;;;5060114;28;20216;-84
2021/12/09 02:30:13;;;;;;;15.67;11.13;;;7.10;81.80;7.10;94904.00;;;;5053310;28;20208;-84
2021/12/09 02:32:41;;;;;;;12.57;9.80;;;7.00;81.70;7.10;94903.00;;;;5033763;28;20201;-84
2021/12/09 20:41:20;;;;;;;7.27;6.27;;;7.10;82.50;6.90;95363.00;;;;5136654;22;20232;-84
2021/12/09 20:43:48;;;;;;;6.10;5.50;;;7.00;82.90;6.90;95361.00;;;;5131243;27;20277;-84
2021/12/09 20:46:17;;;;;;;7.13;5.30;;;7.00;82.90;6.90;95347.00;;;;5120159;27;20286;-84
2021/12/09 20:48:46;;;;;;;7.93;6.03;;;7.00;82.90;6.90;95346.00;;;;5133861;27;20247;-84
2021/12/09 20:51:14;;;;;;;7.33;5.50;;;7.00;83.00;6.90;95348.00;;;;5145465;27;20228;-84
2021/12/09 20:53:41;;;;;;;6.17;5.57;;;7.00;82.90;6.90;95336.00;;;;5137831;27;20634;-84
2021/12/09 20:56:12;;;;;;;7.10;5.23;;;7.00;83.10;6.90;95352.00;;;;5137671;27;20221;-85
2021/12/09 20:58:41;;;;;;;5.50;5.00;;;7.00;82.90;7.00;95352.00;;;;5134293;27;20269;-84
2021/12/09 21:01:08;;;;;;;8.27;5.40;;;7.00;82.80;7.00;95353.00;;;;5154227;27;20257;-84
2021/12/09 21:03:36;;;;;;;7.43;4.40;;;7.00;82.90;7.00;95354.00;;;;5151420;27;20209;-84
2021/12/09 21:06:06;;;;;;;6.97;5.10;;;7.00;82.50;7.00;95348.00;;;;5129266;27;20195;-84
2021/12/09 21:08:34;;;;;;;5.87;4.87;;;7.00;82.60;6.90;95342.00;;;;5134422;27;20217;-84
2021/12/09 21:11:05;;;;;;;6.50;5.20;;;6.90;82.40;7.00;95353.00;;;;5136634;27;20229;-85
2021/12/09 21:13:35;;;;;;;8.90;5.43;;;6.90;82.30;6.90;95351.00;;;;5139958;27;20254;-84
2021/12/09 21:16:09;;;;;;;5.87;5.00;;;6.90;82.40;6.90;95339.00;;;;5141300;27;20634;-85
2021/12/09 21:18:39;;;;;;;10.10;5.67;;;6.90;82.30;6.90;95341.00;;;;5143627;27;20277;-85
2021/12/09 21:21:08;;;;;;;7.00;4.90;;;6.90;82.30;6.90;95342.00;;;;5128599;27;20264;-85
2021/12/09 21:23:36;;;;;;;5.00;4.43;;;6.90;83.00;6.90;95337.00;;;;5139575;27;20182;-84
2021/12/09 21:26:04;;;;;;;5.33;4.83;;;6.90;82.30;6.90;95346.00;;;;5134536;27;20203;-85
2021/12/09 21:28:33;;;;;;;6.30;4.77;;;6.90;82.20;6.80;95326.00;;;;5137853;27;20202;-85
2021/12/09 21:31:00;;;;;;;6.80;5.00;;;6.90;82.00;6.80;95335.00;;;;5115579;27;20229;-85
2021/12/09 21:33:35;;;;;;;7.13;5.37;;;6.80;82.20;6.80;95334.00;;;;5133510;27;20194;-84
2021/12/09 21:36:03;;;;;;;5.03;4.60;;;6.80;82.00;6.80;95333.00;;;;5124113;27;20225;-84
2021/12/09 21:38:32;;;;;;;6.57;4.97;;;6.80;82.10;6.80;95335.00;;;;5129497;27;20211;-84
2021/12/09 21:41:00;;;;;;;7.10;5.17;;;6.80;82.00;6.80;95328.00;;;;5130272;27;20742;-84
2021/12/09 21:43:29;;;;;;;5.27;4.50;;;6.80;82.00;6.80;95330.00;;;;5132922;27;20639;-84
2021/12/09 21:45:57;;;;;;;6.10;4.33;;;6.80;82.00;6.80;95326.00;;;;5136945;27;20801;-84
2021/12/09 21:48:24;;;;;;;7.23;4.30;;;6.80;82.00;6.80;95330.00;;;;5134143;27;20300;-84
2021/12/09 21:50:53;;;;;;;4.00;3.50;;;6.80;82.00;6.80;95332.00;;;;5126996;27;20225;-84
2021/12/09 21:53:21;;;;;;;7.37;4.13;;;6.80;82.10;6.80;95324.00;;;;5134881;27;20274;-84
2021/12/09 21:55:49;;;;;;;4.80;3.70;;;6.80;82.10;6.90;95332.00;;;;5126238;27;20697;-84
2021/12/09 21:58:18;;;;;;;3.73;3.40;;;6.80;82.10;6.90;95326.00;;;;5121868;27;20249;-84
2021/12/09 22:00:45;;;;;;;4.13;3.43;;;6.80;82.00;6.90;95331.00;;;;5143076;27;20808;-84
2021/12/09 22:03:14;;;;;;;5.27;3.37;;;6.80;81.90;6.90;95327.00;;;;5157117;27;20232;-84
2021/12/09 22:05:41;;;;;;;4.80;3.27;;;6.80;81.80;6.90;95330.00;;;;5146087;27;20228;-85
2021/12/09 22:08:13;;;;;;;4.07;3.67;;;6.80;82.00;6.90;95333.00;;;;5135662;27;20654;-84
2021/12/09 22:10:47;;;;;;;7.10;3.80;;;6.80;81.90;6.90;95324.00;;;;5149302;27;20201;-85
2021/12/09 22:13:18;;;;;;;3.67;3.37;;;6.70;82.00;6.80;95323.00;;;;5128391;27;20640;-85
2021/12/09 22:15:46;;;;;;;5.27;3.43;;;6.80;82.00;6.90;95314.00;;;;5156832;27;20228;-85
2021/12/09 22:18:15;;;;;;;3.80;3.40;;;6.80;82.00;6.90;95316.00;;;;5151413;27;20228;-85
2021/12/09 22:20:44;;;;;;;3.67;3.20;;;8.50;83.10;6.90;95319.00;;;;5118067;22;20215;-88
2021/12/09 22:23:13;;;;;;;4.90;3.10;;;6.90;82.00;6.90;95310.00;;;;5093349;28;20306;-88
2021/12/09 22:25:41;;;;;;;5.90;2.97;;;6.90;81.80;7.00;95304.00;;;;5089211;28;20218;-89
2021/12/09 22:28:10;;;;;;;3.43;3.13;;;6.90;82.00;7.00;95309.00;;;;5073605;28;20188;-89
2021/12/09 22:30:38;;;;;;;3.67;2.80;;;6.90;81.90;7.00;95310.00;;;;5073958;28;20283;-88
2021/12/09 22:33:05;;;;;;;8.90;3.00;;;6.90;81.80;6.90;95308.00;;;;5107680;22;20238;-84
2021/12/09 22:35:32;;;;;;;5.10;3.07;;;6.90;81.80;6.90;95304.00;;;;5085761;28;20286;-85
2021/12/09 22:38:00;;;;;;;3.47;2.93;;;6.90;81.90;6.90;95308.00;;;;5110753;28;20250;-84
2021/12/09 22:40:28;;;;;;;3.57;3.07;;;6.90;81.80;6.90;95306.00;;;;5113893;28;20237;-84
2021/12/09 22:42:56;;;;;;;6.87;2.80;;;6.90;81.60;6.90;95284.00;;;;5112649;28;20191;-84
2021/12/09 22:45:23;;;;;;;3.83;3.03;;;6.90;81.70;6.90;95301.00;;;;5115541;28;20208;-85
2021/12/09 22:47:50;;;;;;;8.90;3.10;;;6.90;82.10;6.90;95300.00;;;;5114820;28;20222;-84
2021/12/09 22:50:18;;;;;;;3.83;2.80;;;6.90;82.00;6.90;95299.00;;;;5094541;28;20196;-84
2021/12/09 22:52:46;;;;;;;4.60;3.37;;;6.90;81.50;6.90;95292.00;;;;5077213;28;20207;-85
2021/12/09 22:55:18;;;;;;;4.93;3.17;;;6.90;81.50;6.90;95285.00;;;;5095336;28;20558;-85
2021/12/09 22:57:48;;;;;;;4.50;3.53;;;6.80;81.50;6.90;95287.00;;;;5095071;28;20702;-85
2021/12/09 23:00:36;;;;;;;5.10;3.90;;;6.90;81.60;6.90;95276.00;;;;5094599;28;20281;-83
2021/12/09 23:03:07;;;;;;;4.30;3.20;;;7.00;81.20;6.90;95268.00;;;;5095437;28;20194;-84
2021/12/09 23:05:37;;;;;;;5.43;2.93;;;6.90;81.70;6.90;95264.00;;;;5104595;28;20227;-84
2021/12/09 23:08:05;;;;;;;5.70;2.77;;;6.90;81.90;7.00;95262.00;;;;5102566;28;20218;-84
2021/12/09 23:10:33;;;;;;;4.17;2.57;;;6.90;82.00;6.90;95272.00;;;;5102766;28;20192;-84
2021/12/09 23:13:08;;;;;;;6.63;2.70;;;6.90;82.50;7.00;95265.00;;;;5080167;28;20224;-85
2021/12/09 23:15:35;;;;;;;7.77;2.93;;;6.90;81.70;7.00;95273.00;;;;5115003;28;20202;-85
2021/12/09 23:18:07;;;;;;;4.60;2.87;;;6.90;81.60;7.00;95262.00;;;;5096771;28;20251;-85
2021/12/09 23:20:35;;;;;;;6.83;2.57;;;6.90;81.60;7.00;95261.00;;;;5094907;28;20234;-85
2021/12/09 23:23:04;;;;;;;4.03;2.57;;;6.90;81.80;7.00;95258.00;;;;5095141;28;20241;-84
2021/12/09 23:25:31;;;;;;;2.50;2.17;;;6.90;81.70;7.00;95262.00;;;;5094139;28;20199;-85
2021/12/09 23:27:58;;;;;;;6.23;2.70;;;6.90;81.40;7.00;95259.00;;;;5094081;28;20310;-84
2021/12/09 23:30:27;;;;;;;4.23;2.67;;;6.90;81.30;7.00;95257.00;;;;5094581;28;20870;-85
2021/12/09 23:32:54;;;;;;;4.53;2.43;;;6.90;81.30;7.00;95249.00;;;;5095558;28;20275;-84
2021/12/09 23:35:21;;;;;;;5.43;2.60;;;6.90;81.50;6.90;95241.00;;;;5093594;28;20206;-85
2021/12/09 23:37:48;;;;;;;2.93;2.50;;;6.90;81.20;7.00;95238.00;;;;5093187;28;20298;-83
2021/12/09 23:40:22;;;;;;;3.40;2.33;;;6.90;81.10;6.90;95229.00;;;;5092700;28;20198;-85
2021/12/09 23:42:49;;;;;;;3.40;2.63;;;6.90;80.90;6.90;95226.00;;;;5092854;28;20207;-85
2021/12/09 23:45:17;;;;;;;3.63;2.27;;;7.00;81.10;7.00;95223.00;;;;5092896;28;20249;-85
2021/12/09 23:47:45;;;;;;;4.33;2.17;;;7.70;81.60;7.00;95217.00;;;;5100258;28;20265;-85
2021/12/09 23:50:13;;;;;;;2.67;2.47;;;6.90;81.00;6.90;95215.00;;;;5082449;28;20279;-84
2021/12/09 23:52:43;;;;;;;3.20;2.17;;;6.90;81.00;7.00;95221.00;;;;5073483;28;20196;-85
2021/12/09 23:55:15;;;;;;;5.73;2.13;;;6.90;81.10;7.00;95222.00;;;;5073506;28;20651;-83
2021/12/09 23:57:44;;;;;;;8.70;2.63;;;6.90;81.10;6.90;95213.00;;;;5072931;28;20219;-85
